createdAt,value
2023-07-03T00:00:19.918Z,99728.79
2023-07-03T00:05:24.056Z,99732.64
2023-07-03T00:10:25.018Z,99734.08
2023-07-03T00:15:25.879Z,99737.84
2023-07-03T00:20:28.261Z,99739.17
2023-07-03T00:25:29.070Z,99744.90
2023-07-03T00:30:29.925Z,99748.53
2023-07-03T00:35:30.732Z,99750.59
2023-07-03T00:40:31.765Z,99754.23
2023-07-03T00:45:33.959Z,99755.36
2023-07-03T00:50:35.394Z,99761.75
2023-07-03T00:55:38.419Z,99759.36
2023-07-03T01:00:43.327Z,99761.23
2023-07-03T01:05:50.360Z,99765.01
2023-07-03T01:10:52.099Z,99767.06
2023-07-03T01:15:54.392Z,99764.92
2023-07-03T01:21:06.418Z,99768.65
2023-07-03T01:26:08.573Z,99770.16
2023-07-03T01:31:10.808Z,99773.24
2023-07-03T01:36:13.363Z,99772.75
2023-07-03T01:41:16.664Z,99777.23
2023-07-03T01:46:17.596Z,99781.98
2023-07-03T01:51:26.090Z,99787.77
2023-07-03T01:56:32.850Z,99790.77
2023-07-03T02:02:08.186Z,99787.19
2023-07-03T02:07:11.925Z,99786.13
2023-07-03T02:12:12.960Z,99788.67
2023-07-03T02:17:13.875Z,99794.52
2023-07-03T02:22:14.751Z,99788.04
2023-07-03T02:27:15.740Z,99791.58
2023-07-03T02:32:16.682Z,99800.33
2023-07-03T02:37:19.296Z,99800.92
2023-07-03T02:42:20.157Z,99802.01
2023-07-03T02:47:21.135Z,99804.14
2023-07-03T02:52:22.181Z,99805.14
2023-07-03T02:57:23.245Z,99804.14
2023-07-03T03:02:24.144Z,99808.20
2023-07-03T03:07:25.216Z,99810.19
2023-07-03T03:12:26.105Z,99814.63
2023-07-03T03:17:26.976Z,99819.09
2023-07-03T03:22:27.945Z,99811.45
2023-07-03T03:27:28.818Z,99814.66
2023-07-03T03:32:30.464Z,99814.81
2023-07-03T03:37:31.394Z,99818.91
2023-07-03T03:42:32.255Z,99817.48
2023-07-03T03:47:33.598Z,99820.27
2023-07-03T03:52:34.721Z,99816.11
2023-07-03T03:57:35.602Z,99818.94
2023-07-03T04:02:36.479Z,99816.69
2023-07-03T04:07:37.425Z,99818.11
2023-07-03T04:12:38.257Z,99825.73
2023-07-03T04:17:39.154Z,99831.52
2023-07-03T04:22:41.669Z,99834.67
2023-07-03T04:27:42.732Z,99836.91
2023-07-03T04:32:43.702Z,99836.20
2023-07-03T04:37:46.078Z,99828.88
2023-07-03T04:42:46.987Z,99826.00
2023-07-03T04:47:48.416Z,99824.66
2023-07-03T04:52:50.176Z,99826.76
2023-07-03T04:57:51.061Z,99836.12
2023-07-03T05:02:52.509Z,99834.58
2023-07-03T05:07:54.413Z,99828.09
2023-07-03T05:12:56.833Z,99827.52
2023-07-03T05:17:58.537Z,99830.42
2023-07-03T05:22:59.687Z,99836.65
2023-07-03T05:28:00.553Z,99833.33
2023-07-03T05:33:01.531Z,99833.27
2023-07-03T05:38:03.268Z,99835.92
2023-07-03T05:43:04.169Z,99832.02
2023-07-03T05:48:05.942Z,99835.98
2023-07-03T05:53:09.606Z,99846.15
2023-07-03T05:58:12.000Z,99863.56
2023-07-03T06:03:12.948Z,99873.75
2023-07-03T06:08:13.916Z,99879.99
2023-07-03T06:13:14.994Z,99883.71
2023-07-03T06:18:15.824Z,99886.03
2023-07-03T06:23:17.360Z,99889.74
2023-07-03T06:28:18.207Z,99895.58
2023-07-03T06:33:19.480Z,99897.89
2023-07-03T06:38:20.636Z,99897.73
2023-07-03T06:43:21.460Z,99896.41
2023-07-03T06:48:22.300Z,99898.94
2023-07-03T06:53:23.257Z,99901.73
2023-07-03T06:58:24.756Z,99907.71
2023-07-03T07:03:25.712Z,99899.82
2023-07-03T07:08:26.789Z,99905.71
2023-07-03T07:13:27.707Z,99904.84
2023-07-03T07:18:28.619Z,99909.34
2023-07-03T07:23:29.632Z,99911.64
2023-07-03T07:28:31.083Z,99916.42
2023-07-03T07:33:31.949Z,99913.66
2023-07-03T07:38:32.885Z,99920.80
2023-07-03T07:43:33.877Z,99914.83
2023-07-03T07:48:35.361Z,99914.41
2023-07-03T07:53:37.113Z,99912.33
2023-07-03T07:58:38.540Z,99915.93
2023-07-03T08:03:40.097Z,99919.96
2023-07-03T08:08:40.990Z,99918.60
2023-07-03T08:13:42.404Z,99920.70
2023-07-03T08:18:45.059Z,99914.66
2023-07-03T08:23:47.139Z,99922.16
2023-07-03T08:28:48.406Z,99924.23
2023-07-03T08:33:49.592Z,99927.95
2023-07-03T08:38:50.614Z,99926.67
2023-07-03T08:43:57.093Z,99925.02
2023-07-03T08:49:04.587Z,99913.20
2023-07-03T08:54:18.772Z,99916.63
2023-07-03T08:59:19.648Z,99908.92
2023-07-03T09:04:43.833Z,99904.14
2023-07-03T09:10:05.261Z,99902.33
2023-07-03T09:15:23.405Z,99903.58
2023-07-03T09:20:26.708Z,99906.00
2023-07-03T09:25:43.372Z,99909.33
2023-07-03T09:30:44.272Z,99906.35
2023-07-03T09:35:45.869Z,99905.86
2023-07-03T09:40:50.987Z,99904.55
2023-07-03T09:46:04.471Z,99901.42
2023-07-03T09:51:22.583Z,99892.34
2023-07-03T09:56:30.334Z,99887.23
2023-07-03T10:06:39.607Z,99887.67
2023-07-03T10:12:19.660Z,99887.88
2023-07-03T10:17:40.429Z,99890.96
2023-07-03T10:22:44.125Z,99892.21
2023-07-03T10:27:48.441Z,99894.33
2023-07-03T10:32:52.494Z,99898.91
2023-07-03T10:38:34.636Z,99891.84
2023-07-03T10:43:51.403Z,99893.88
2023-07-03T10:48:56.697Z,99893.34
2023-07-03T10:54:07.347Z,99891.07
2023-07-03T10:59:26.666Z,99882.31
2023-07-03T11:04:43.446Z,99877.48
2023-07-03T11:10:11.473Z,99870.70
2023-07-03T11:15:30.679Z,99866.83
2023-07-03T11:31:26.043Z,99862.16
2023-07-03T11:36:49.690Z,99851.44
2023-07-03T11:46:59.571Z,99832.94
2023-07-03T11:52:03.679Z,99831.23
2023-07-03T11:57:26.728Z,99829.52
2023-07-03T12:02:27.553Z,99826.94
2023-07-03T12:07:28.366Z,99822.57
2023-07-03T12:12:31.402Z,99827.64
2023-07-03T12:17:37.299Z,99822.64
2023-07-03T12:22:44.105Z,99822.25
2023-07-03T12:27:46.662Z,99818.17
2023-07-03T12:32:52.993Z,99816.73
2023-07-03T12:38:00.870Z,99818.55
2023-07-03T12:43:01.773Z,99810.15
2023-07-03T12:48:19.158Z,99813.36
2023-07-03T12:53:20.048Z,99809.86
2023-07-03T12:58:22.802Z,99804.61
2023-07-03T13:03:23.662Z,99803.83
2023-07-03T13:08:25.396Z,99801.40
2023-07-03T13:13:27.207Z,99792.33
2023-07-03T13:18:28.296Z,99775.30
2023-07-03T13:23:38.728Z,99774.80
2023-07-03T13:28:51.764Z,99772.59
2023-07-03T13:34:16.930Z,99771.61
2023-07-03T13:39:29.424Z,99774.38
2023-07-03T13:44:30.872Z,99771.17
2023-07-03T13:49:31.827Z,99769.24
2023-07-03T13:54:35.809Z,99765.61
2023-07-03T13:59:36.671Z,99758.98
2023-07-03T14:04:37.727Z,99766.55
2023-07-03T14:09:38.772Z,99764.06
2023-07-03T14:14:39.623Z,99759.35
2023-07-03T14:19:40.477Z,99760.98
2023-07-03T14:24:41.311Z,99761.40
2023-07-03T14:29:42.163Z,99758.40
2023-07-03T14:34:42.993Z,99763.49
2023-07-03T14:39:43.866Z,99764.52
2023-07-03T14:44:44.759Z,99761.03
2023-07-03T14:49:46.353Z,99756.34
2023-07-03T14:54:47.608Z,99756.96
2023-07-03T14:59:48.565Z,99747.77
2023-07-03T15:04:49.586Z,99738.77
2023-07-03T15:09:50.931Z,99734.45
2023-07-03T15:14:51.761Z,99733.33
2023-07-03T15:19:56.339Z,99729.44
2023-07-03T15:24:58.265Z,99726.91
2023-07-03T15:29:59.166Z,99719.56
2023-07-03T15:35:00.880Z,99723.98
2023-07-03T15:40:03.165Z,99719.54
2023-07-03T15:45:04.971Z,99715.83
2023-07-03T15:50:06.715Z,99716.66
2023-07-03T15:55:08.499Z,99715.16
2023-07-03T16:00:10.587Z,99715.17
2023-07-03T16:05:11.531Z,99721.73
2023-07-03T16:10:13.085Z,99721.16
2023-07-03T16:15:14.169Z,99718.67
2023-07-03T16:20:17.571Z,99725.65
2023-07-03T16:25:21.299Z,99721.89
2023-07-03T16:30:22.163Z,99719.21
2023-07-03T16:35:22.990Z,99716.41
2023-07-03T16:40:23.892Z,99724.96
2023-07-03T16:45:24.872Z,99724.93
2023-07-03T16:50:25.779Z,99728.85
2023-07-03T16:55:26.906Z,99728.38
2023-07-03T17:00:28.119Z,99732.19
2023-07-03T17:05:29.081Z,99735.78
2023-07-03T17:10:30.000Z,99737.73
2023-07-03T17:15:32.659Z,99736.85
2023-07-03T17:20:33.627Z,99739.06
2023-07-03T17:25:34.791Z,99744.80
2023-07-03T17:30:37.104Z,99748.45
2023-07-03T17:35:41.523Z,99752.96
2023-07-03T17:40:44.209Z,99752.02
2023-07-03T17:45:45.403Z,99753.91
2023-07-03T17:50:47.222Z,99754.50
2023-07-03T17:55:49.150Z,99759.20
2023-07-03T18:00:52.465Z,99758.73
2023-07-03T18:05:57.315Z,99763.36
2023-07-03T18:10:58.212Z,99765.29
2023-07-03T18:15:59.364Z,99771.56
2023-07-03T18:21:00.725Z,99774.23
2023-07-03T18:26:01.757Z,99771.94
2023-07-03T18:31:03.891Z,99770.27
2023-07-03T18:36:05.566Z,99774.46
2023-07-03T18:41:06.528Z,99778.04
2023-07-03T18:46:08.483Z,99788.45
2023-07-03T18:51:14.417Z,99793.40
2023-07-03T18:56:18.682Z,99800.74
2023-07-03T19:01:19.756Z,99806.89
2023-07-03T19:06:22.869Z,99814.36
2023-07-03T19:11:24.384Z,99820.04
2023-07-03T19:16:25.392Z,99830.61
2023-07-03T19:21:27.423Z,99835.30
2023-07-03T19:26:29.936Z,99842.52
2023-07-03T19:31:30.933Z,99848.79
2023-07-03T19:36:32.040Z,99856.89
2023-07-03T19:41:32.857Z,99861.50
2023-07-03T19:46:33.748Z,99863.33
2023-07-03T19:51:36.225Z,99871.80
2023-07-03T19:56:37.258Z,99874.46
2023-07-03T20:01:38.181Z,99881.25
2023-07-03T20:06:39.153Z,99885.77
2023-07-03T20:11:40.125Z,99883.95
2023-07-03T20:16:41.255Z,99883.40
2023-07-03T20:21:42.972Z,99889.46
2023-07-03T20:26:43.845Z,99899.23
2023-07-03T20:31:44.894Z,99907.45
2023-07-03T20:36:48.450Z,99908.11
2023-07-03T20:41:49.558Z,99910.84
2023-07-03T20:46:53.405Z,99909.31
2023-07-03T20:51:55.961Z,99912.98
2023-07-03T20:56:56.784Z,99917.03
2023-07-03T21:01:57.839Z,99924.84
2023-07-03T21:07:00.246Z,99928.86
2023-07-03T21:12:01.319Z,99932.98
2023-07-03T21:17:02.346Z,99936.15
2023-07-03T21:22:04.603Z,99939.73
2023-07-03T21:27:05.919Z,99941.72
2023-07-03T21:32:08.025Z,99949.39
2023-07-03T21:37:09.373Z,99945.76
2023-07-03T21:42:10.238Z,99946.81
2023-07-03T21:47:13.525Z,99946.02
2023-07-03T21:52:14.357Z,99952.17
2023-07-03T21:57:18.520Z,99956.65
2023-07-03T22:02:19.384Z,99962.44
2023-07-03T22:07:20.325Z,99961.56
2023-07-03T22:12:23.520Z,99965.29
2023-07-03T22:17:24.558Z,99965.99
2023-07-03T22:22:27.184Z,99968.02
2023-07-03T22:27:28.193Z,99975.16
2023-07-03T22:32:30.466Z,99976.27
2023-07-03T22:37:31.738Z,99980.30
2023-07-03T22:42:32.817Z,99979.00
2023-07-03T22:47:33.876Z,99986.86
2023-07-03T22:52:35.687Z,99979.55
2023-07-03T22:57:36.708Z,99980.53
2023-07-03T23:02:39.145Z,99979.89
2023-07-03T23:07:40.196Z,99980.13
2023-07-03T23:12:41.064Z,99981.18
2023-07-03T23:17:42.297Z,99987.59
2023-07-03T23:22:43.172Z,99991.05
2023-07-03T23:27:45.541Z,99997.45
2023-07-03T23:32:46.566Z,100005.09
2023-07-03T23:37:47.414Z,100003.77
2023-07-03T23:42:48.297Z,100004.77
2023-07-03T23:47:50.702Z,100003.88
2023-07-03T23:52:53.349Z,100007.61
2023-07-03T23:57:54.241Z,100009.54
